createdAt,value
2023-04-21T00:00:53.690Z,98800.94
2023-04-21T00:03:22.578Z,98804.38
2023-04-21T00:05:50.908Z,98794.94
2023-04-21T00:08:18.373Z,98796.75
2023-04-21T00:10:45.430Z,98812.41
2023-04-21T00:13:12.242Z,98806.56
2023-04-21T00:15:38.862Z,98807.41
2023-04-21T00:18:06.308Z,98808.38
2023-04-21T00:20:32.863Z,98814.50
2023-04-21T00:22:59.828Z,98809.34
2023-04-21T00:25:26.456Z,98818.03
2023-04-21T00:27:53.187Z,98818.91
2023-04-21T00:30:19.694Z,98823.28
2023-04-21T00:32:46.199Z,98825.94
2023-04-21T00:35:13.081Z,98820.84
2023-04-21T00:37:40.399Z,98824.28
2023-04-21T00:40:07.996Z,98822.66
2023-04-21T00:42:34.499Z,98814.97
2023-04-21T00:45:01.047Z,98808.94
2023-04-21T00:47:27.963Z,98815.91
2023-04-21T00:49:54.971Z,98816.78
2023-04-21T00:52:21.828Z,98809.91
2023-04-21T00:54:48.538Z,98814.25
2023-04-21T00:57:15.263Z,98807.38
2023-04-21T00:59:42.063Z,98809.13
2023-04-21T01:02:09.156Z,98809.16
2023-04-21T01:04:39.043Z,98798.84
2023-04-21T01:07:07.870Z,98792.00
2023-04-21T01:09:34.784Z,98785.13
2023-04-21T01:12:04.904Z,98777.41
2023-04-21T01:14:31.860Z,98767.13
2023-04-21T01:16:59.238Z,98768.03
2023-04-21T01:19:30.154Z,98768.03
2023-04-21T01:22:00.968Z,98760.31
2023-04-21T01:24:37.138Z,98763.75
2023-04-21T01:27:03.982Z,98761.22
2023-04-21T01:29:34.902Z,98758.59
2023-04-21T01:32:14.144Z,98743.16
2023-04-21T01:34:41.560Z,98755.22
2023-04-21T01:37:21.258Z,98738.88
2023-04-21T01:39:54.426Z,98743.16
2023-04-21T01:42:23.230Z,98752.63
2023-04-21T01:44:50.038Z,98746.63
2023-04-21T01:47:17.718Z,98757.78
2023-04-21T01:49:44.293Z,98750.91
2023-04-21T01:52:11.434Z,98757.78
2023-04-21T01:54:38.065Z,98760.38
2023-04-21T01:57:04.807Z,98747.50
2023-04-21T01:59:31.369Z,98747.47
2023-04-21T02:01:57.945Z,98742.34
2023-04-21T02:04:24.828Z,98746.63
2023-04-21T02:06:51.532Z,98748.34
2023-04-21T02:09:18.353Z,98745.78
2023-04-21T02:11:45.267Z,98754.34
2023-04-21T02:14:12.520Z,98744.94
2023-04-21T02:16:39.094Z,98741.47
2023-04-21T02:19:06.167Z,98744.06
2023-04-21T02:21:32.711Z,98747.50
2023-04-21T02:23:59.253Z,98740.63
2023-04-21T02:26:25.747Z,98740.66
2023-04-21T02:28:52.299Z,98745.78
2023-04-21T02:31:18.966Z,98756.94
2023-04-21T02:33:46.372Z,98759.50
2023-04-21T02:36:14.082Z,98754.38
2023-04-21T02:38:40.656Z,98755.22
2023-04-21T02:41:07.302Z,98747.50
2023-04-21T02:43:33.823Z,98750.94
2023-04-21T02:46:00.333Z,98750.09
2023-04-21T02:48:26.922Z,98746.66
2023-04-21T02:50:53.514Z,98748.41
2023-04-21T02:53:20.672Z,98748.41
2023-04-21T02:55:47.336Z,98741.53
2023-04-21T02:58:15.426Z,98736.38
2023-04-21T03:00:42.090Z,98730.38
2023-04-21T03:03:08.796Z,98738.94
2023-04-21T03:05:35.741Z,98735.53
2023-04-21T03:08:02.275Z,98742.38
2023-04-21T03:10:28.772Z,98737.22
2023-04-21T03:12:56.348Z,98734.63
2023-04-21T03:15:22.930Z,98741.53
2023-04-21T03:17:49.678Z,98738.97
2023-04-21T03:20:17.098Z,98741.53
2023-04-21T03:22:43.643Z,98752.69
2023-04-21T03:25:11.344Z,98756.97
2023-04-21T03:27:38.059Z,98750.13
2023-04-21T03:30:05.394Z,98755.25
2023-04-21T03:32:31.869Z,98743.28
2023-04-21T03:34:58.436Z,98735.53
2023-04-21T03:37:24.976Z,98728.66
2023-04-21T03:39:51.459Z,98729.53
2023-04-21T03:42:18.213Z,98730.41
2023-04-21T03:44:44.762Z,98732.97
2023-04-21T03:47:11.290Z,98734.66
2023-04-21T03:49:37.799Z,98721.81
2023-04-21T03:52:04.535Z,98727.81
2023-04-21T03:54:31.041Z,98727.81
2023-04-21T03:56:57.576Z,98721.81
2023-04-21T03:59:24.082Z,98732.97
2023-04-21T04:01:50.842Z,98723.53
2023-04-21T04:04:18.338Z,98715.81
2023-04-21T04:06:45.204Z,98720.94
2023-04-21T04:09:11.710Z,98727.84
2023-04-21T04:11:38.320Z,98723.53
2023-04-21T04:14:04.792Z,98726.09
2023-04-21T04:16:31.337Z,98728.69
2023-04-21T04:18:57.896Z,98730.38
2023-04-21T04:21:24.409Z,98730.41
2023-04-21T04:23:54.054Z,98708.97
2023-04-21T04:26:22.731Z,98722.69
2023-04-21T04:28:49.576Z,98721.81
2023-04-21T04:31:17.278Z,98719.25
2023-04-21T04:33:44.473Z,98720.94
2023-04-21T04:36:14.332Z,98718.38
2023-04-21T04:38:41.752Z,98703.81
2023-04-21T04:41:09.097Z,98703.81
2023-04-21T04:43:39.358Z,98714.97
2023-04-21T04:46:06.430Z,98714.09
2023-04-21T04:48:33.078Z,98708.97
2023-04-21T04:50:59.593Z,98708.94
2023-04-21T04:53:28.585Z,98709.78
2023-04-21T04:55:55.329Z,98705.50
2023-04-21T04:58:22.405Z,98706.34
2023-04-21T05:00:48.932Z,98704.66
2023-04-21T05:03:15.804Z,98714.94
2023-04-21T05:05:42.590Z,98726.09
2023-04-21T05:08:09.134Z,98720.09
2023-04-21T05:10:35.744Z,98734.69
2023-04-21T05:13:02.317Z,98732.97
2023-04-21T05:15:28.948Z,98725.22
2023-04-21T05:17:55.558Z,98721.78
2023-04-21T05:20:22.987Z,98723.53
2023-04-21T05:22:49.524Z,98720.09
2023-04-21T05:25:16.167Z,98722.66
2023-04-21T05:27:43.421Z,98721.78
2023-04-21T05:30:10.477Z,98715.81
2023-04-21T05:32:37.311Z,98716.66
2023-04-21T05:35:04.136Z,98710.66
2023-04-21T05:37:30.715Z,98713.25
2023-04-21T05:39:57.216Z,98716.66
2023-04-21T05:42:24.208Z,98725.22
2023-04-21T05:44:51.075Z,98731.25
2023-04-21T05:47:17.617Z,98729.50
2023-04-21T05:49:50.091Z,98728.66
2023-04-21T05:52:17.908Z,98731.22
2023-04-21T05:54:44.616Z,98743.25
2023-04-21T05:57:11.154Z,98734.66
2023-04-21T05:59:37.796Z,98741.53
2023-04-21T06:02:04.562Z,98740.66
2023-04-21T06:04:31.501Z,98738.97
2023-04-21T06:06:58.235Z,98732.97
2023-04-21T06:09:24.759Z,98750.97
2023-04-21T06:11:51.276Z,98757.84
2023-04-21T06:14:18.044Z,98763.84
2023-04-21T06:16:44.776Z,98759.53
2023-04-21T06:19:11.369Z,98756.97
2023-04-21T06:21:37.926Z,98756.13
2023-04-21T06:24:04.628Z,98750.09
2023-04-21T06:26:31.124Z,98759.56
2023-04-21T06:28:57.761Z,98753.53
2023-04-21T06:31:24.270Z,98756.13
2023-04-21T06:33:50.895Z,98763.84
2023-04-21T06:36:18.119Z,98757.84
2023-04-21T06:38:45.184Z,98754.41
2023-04-21T06:41:11.806Z,98755.25
2023-04-21T06:43:38.392Z,98758.69
2023-04-21T06:46:05.156Z,98760.38
2023-04-21T06:48:31.933Z,98753.50
2023-04-21T06:50:59.106Z,98765.53
2023-04-21T06:53:25.653Z,98765.53
2023-04-21T06:55:53.386Z,98767.22
2023-04-21T06:58:21.330Z,98769.78
2023-04-21T07:00:48.218Z,98772.41
2023-04-21T07:03:14.944Z,98773.25
2023-04-21T07:05:41.560Z,98772.34
2023-04-21T07:08:08.118Z,98780.97
2023-04-21T07:10:34.626Z,98783.53
2023-04-21T07:13:01.130Z,98780.06
2023-04-21T07:15:27.763Z,98774.06
2023-04-21T07:17:54.332Z,98783.50
2023-04-21T07:20:20.976Z,98786.91
2023-04-21T07:22:47.514Z,98794.59
2023-04-21T07:25:14.117Z,98799.75
2023-04-21T07:27:40.659Z,98790.25
2023-04-21T07:30:07.929Z,98795.38
2023-04-21T07:32:35.192Z,98792.78
2023-04-21T07:35:02.071Z,98797.06
2023-04-21T07:37:29.012Z,98798.72
2023-04-21T07:39:55.547Z,98801.28
2023-04-21T07:42:22.579Z,98805.56
2023-04-21T07:44:49.390Z,98810.69
2023-04-21T07:47:15.966Z,98811.50
2023-04-21T07:49:43.188Z,98808.88
2023-04-21T07:52:09.959Z,98799.41
2023-04-21T07:54:36.460Z,98799.41
2023-04-21T07:57:03.776Z,98805.34
2023-04-21T07:59:30.523Z,98812.16
2023-04-21T08:01:57.313Z,98808.66
2023-04-21T08:04:24.144Z,98819.84
2023-04-21T08:06:51.368Z,98812.06
2023-04-21T08:09:18.200Z,98818.88
2023-04-21T08:11:44.980Z,98810.22
2023-04-21T08:14:11.965Z,98817.88
2023-04-21T08:16:40.343Z,98821.25
2023-04-21T08:19:08.081Z,98832.41
2023-04-21T08:21:34.826Z,98828.94
2023-04-21T08:24:01.329Z,98828.06
2023-04-21T08:26:30.173Z,98812.50
2023-04-21T08:28:57.349Z,98827.09
2023-04-21T08:31:24.108Z,98827.97
2023-04-21T08:34:01.343Z,98823.66
2023-04-21T08:36:30.127Z,98833.06
2023-04-21T08:38:57.176Z,98830.41
2023-04-21T08:41:24.997Z,98834.63
2023-04-21T08:43:51.819Z,98837.19
2023-04-21T08:46:19.390Z,98830.25
2023-04-21T08:48:47.263Z,98820.66
2023-04-21T08:51:21.369Z,98815.44
2023-04-21T08:53:47.911Z,98817.09
2023-04-21T08:56:14.942Z,98815.22
2023-04-21T08:58:42.039Z,98804.78
2023-04-21T09:01:08.768Z,98820.25
2023-04-21T09:03:36.329Z,98837.47
2023-04-21T09:06:06.356Z,98835.66
2023-04-21T09:08:35.096Z,98845.16
2023-04-21T09:11:01.883Z,98840.84
2023-04-21T09:13:34.340Z,98851.13
2023-04-21T09:16:02.965Z,98842.47
2023-04-21T09:18:36.550Z,98846.72
2023-04-21T09:21:13.161Z,98844.00
2023-04-21T09:23:49.115Z,98834.44
2023-04-21T09:26:17.297Z,98842.19
2023-04-21T09:28:45.543Z,98842.13
2023-04-21T09:31:20.152Z,98836.81
2023-04-21T09:33:58.396Z,98829.94
2023-04-21T09:36:31.210Z,98829.88
2023-04-21T09:41:32.123Z,98838.47
2023-04-21T09:44:02.000Z,98835.00
2023-04-21T09:46:33.349Z,98836.38
2023-04-21T09:49:04.382Z,98836.38
2023-04-21T09:54:28.456Z,98838.00
2023-04-21T09:56:59.022Z,98826.59
2023-04-21T09:59:29.300Z,98837.03
2023-04-21T10:01:58.118Z,98836.88
2023-04-21T10:04:26.435Z,98828.19
2023-04-21T10:06:53.494Z,98822.81
2023-04-21T10:09:23.707Z,98829.69
2023-04-21T10:11:50.967Z,98824.53
2023-04-21T10:14:17.647Z,98824.53
2023-04-21T10:16:44.446Z,98832.22
2023-04-21T10:19:25.684Z,98826.03
2023-04-21T10:21:55.434Z,98835.38
2023-04-21T10:24:22.234Z,98836.22
2023-04-21T10:26:52.532Z,98826.63
2023-04-21T10:29:34.756Z,98822.88
2023-04-21T10:32:09.144Z,98827.97
2023-04-21T10:34:38.082Z,98826.28
2023-04-21T10:37:04.804Z,98827.97
2023-04-21T10:39:35.840Z,98825.44
2023-04-21T10:42:20.882Z,98833.84
2023-04-21T10:44:56.499Z,98836.44
2023-04-21T10:47:29.516Z,98835.41
2023-04-21T10:50:00.591Z,98825.22
2023-04-21T10:52:33.543Z,98826.84
2023-04-21T10:55:00.424Z,98821.53
2023-04-21T10:57:35.506Z,98826.44
2023-04-21T11:00:06.232Z,98821.94
2023-04-21T11:02:37.323Z,98809.78
2023-04-21T11:05:06.307Z,98815.75
2023-04-21T11:07:32.913Z,98812.28
2023-04-21T11:10:07.447Z,98811.25
2023-04-21T11:12:37.520Z,98803.31
2023-04-21T11:15:09.798Z,98796.09
2023-04-21T11:17:39.266Z,98809.91
2023-04-21T11:20:06.888Z,98803.06
2023-04-21T11:22:34.233Z,98801.28
2023-04-21T11:25:00.980Z,98795.19
2023-04-21T11:27:29.999Z,98807.28
2023-04-21T11:29:57.628Z,98806.34
2023-04-21T11:32:24.677Z,98812.13
2023-04-21T11:34:51.503Z,98801.63
2023-04-21T11:37:25.643Z,98793.75
2023-04-21T11:39:56.991Z,98784.91
2023-04-21T11:42:23.550Z,98776.94
2023-04-21T11:44:50.308Z,98772.44
2023-04-21T11:47:24.631Z,98773.13
2023-04-21T11:49:59.570Z,98780.88
2023-04-21T11:52:33.987Z,98781.50
2023-04-21T11:55:03.898Z,98781.25
2023-04-21T11:57:32.578Z,98777.84
2023-04-21T12:00:06.731Z,98767.34
2023-04-21T12:02:34.093Z,98758.66
2023-04-21T12:05:09.478Z,98768.72
2023-04-21T12:07:45.673Z,98767.13
2023-04-21T12:10:15.336Z,98756.00
2023-04-21T12:12:43.079Z,98768.91
2023-04-21T12:15:11.209Z,98757.56
2023-04-21T12:17:46.071Z,98773.16
2023-04-21T12:20:13.337Z,98769.63
2023-04-21T12:22:39.872Z,98763.38
2023-04-21T12:25:06.828Z,98766.09
2023-04-21T12:27:36.275Z,98766.84
2023-04-21T12:30:04.088Z,98773.75
2023-04-21T12:32:30.895Z,98767.63
2023-04-21T12:34:57.638Z,98763.63
2023-04-21T12:37:24.185Z,98752.97
2023-04-21T12:39:50.734Z,98762.34
2023-04-21T12:42:17.240Z,98769.28
2023-04-21T12:44:43.726Z,98758.84
2023-04-21T12:47:10.653Z,98739.88
2023-04-21T12:49:38.047Z,98737.19
2023-04-21T12:52:06.135Z,98740.59
2023-04-21T12:54:33.008Z,98744.84
2023-04-21T12:56:59.706Z,98749.91
2023-04-21T12:59:26.476Z,98739.66
2023-04-21T13:01:53.211Z,98736.94
2023-04-21T13:04:19.960Z,98727.34
2023-04-21T13:06:47.087Z,98741.19
2023-04-21T13:09:13.692Z,98730.72
2023-04-21T13:11:40.244Z,98735.88
2023-04-21T13:14:07.469Z,98726.47
2023-04-21T13:16:34.039Z,98730.91
2023-04-21T13:19:00.869Z,98728.03
2023-04-21T13:21:27.941Z,98719.34
2023-04-21T13:23:54.474Z,98720.16
2023-04-21T13:26:21.058Z,98716.41
2023-04-21T13:28:47.988Z,98714.72
2023-04-21T13:31:14.787Z,98714.13
2023-04-21T13:33:42.181Z,98718.66
2023-04-21T13:36:12.614Z,98718.03
2023-04-21T13:38:40.627Z,98705.97
2023-04-21T13:41:07.818Z,98719.88
2023-04-21T13:43:34.681Z,98716.50
2023-04-21T13:46:01.347Z,98718.00
2023-04-21T13:48:29.702Z,98718.03
2023-04-21T13:50:56.360Z,98724.81
2023-04-21T13:53:22.997Z,98717.13
2023-04-21T13:55:50.121Z,98712.41
2023-04-21T13:58:17.159Z,98717.38
2023-04-21T14:00:43.988Z,98711.31
2023-04-21T14:03:11.614Z,98713.78
2023-04-21T14:05:38.986Z,98711.19
2023-04-21T14:08:06.026Z,98711.31
2023-04-21T14:10:32.707Z,98705.38
2023-04-21T14:12:59.354Z,98711.69
2023-04-21T14:15:26.418Z,98707.34
2023-04-21T14:17:53.798Z,98691.63
2023-04-21T14:20:21.475Z,98694.44
2023-04-21T14:22:48.127Z,98690.91
2023-04-21T14:25:14.846Z,98693.72
2023-04-21T14:27:41.490Z,98690.34
2023-04-21T14:30:08.649Z,98687.59
2023-04-21T14:32:35.422Z,98679.69
2023-04-21T14:35:03.868Z,98680.03
2023-04-21T14:37:30.755Z,98672.22
2023-04-21T14:39:57.276Z,98672.69
2023-04-21T14:42:24.092Z,98672.75
2023-04-21T14:44:50.784Z,98671.84
2023-04-21T14:47:17.413Z,98682.09
2023-04-21T14:49:44.065Z,98675.19
2023-04-21T14:52:10.565Z,98682.59
2023-04-21T14:54:37.032Z,98675.72
2023-04-21T14:57:18.709Z,98670.81
2023-04-21T14:59:46.662Z,98675.09
2023-04-21T15:02:13.967Z,98679.50
2023-04-21T15:04:41.085Z,98662.44
2023-04-21T15:07:07.750Z,98660.59
2023-04-21T15:09:35.947Z,98668.84
2023-04-21T15:12:02.916Z,98652.38
2023-04-21T15:14:29.742Z,98651.56
2023-04-21T15:16:56.397Z,98651.56
2023-04-21T15:19:32.031Z,98650.47
2023-04-21T15:21:58.692Z,98648.66
2023-04-21T15:24:25.560Z,98649.03
2023-04-21T15:26:52.045Z,98647.03
2023-04-21T15:29:18.781Z,98650.19
2023-04-21T15:31:45.463Z,98638.16
2023-04-21T15:34:12.075Z,98645.97
2023-04-21T15:36:38.613Z,98644.03
2023-04-21T15:39:05.229Z,98641.25
2023-04-21T15:41:32.022Z,98636.47
2023-04-21T15:44:00.060Z,98632.47
2023-04-21T15:46:27.052Z,98641.78
2023-04-21T15:48:53.755Z,98644.84
2023-04-21T15:51:20.475Z,98639.28
2023-04-21T15:53:48.040Z,98637.25
2023-04-21T15:56:15.907Z,98638.25
2023-04-21T15:58:43.370Z,98631.31
2023-04-21T16:01:10.274Z,98639.09
2023-04-21T16:03:37.163Z,98633.59
2023-04-21T16:06:04.346Z,98630.91
2023-04-21T16:08:33.287Z,98633.00
2023-04-21T16:11:00.584Z,98632.31
2023-04-21T16:13:27.396Z,98635.34
2023-04-21T16:15:54.121Z,98634.91
2023-04-21T16:18:20.971Z,98634.06
2023-04-21T16:20:47.693Z,98635.91
2023-04-21T16:23:15.115Z,98643.09
2023-04-21T16:25:42.041Z,98645.19
2023-04-21T16:28:09.741Z,98643.88
2023-04-21T16:30:38.616Z,98647.31
2023-04-21T16:33:05.167Z,98648.66
2023-04-21T16:35:32.016Z,98636.59
2023-04-21T16:37:58.744Z,98645.63
2023-04-21T16:40:25.852Z,98650.03
2023-04-21T16:42:52.648Z,98643.50
2023-04-21T16:45:19.613Z,98655.44
2023-04-21T16:47:47.416Z,98650.78
2023-04-21T16:50:14.240Z,98652.63
2023-04-21T16:52:40.891Z,98649.38
2023-04-21T16:55:08.192Z,98657.56
2023-04-21T16:57:34.921Z,98649.38
2023-04-21T17:00:07.022Z,98652.09
2023-04-21T17:02:34.175Z,98653.59
2023-04-21T17:05:01.496Z,98655.56
2023-04-21T17:07:28.322Z,98648.50
2023-04-21T17:09:54.940Z,98656.84
2023-04-21T17:12:21.568Z,98649.72
2023-04-21T17:14:48.644Z,98655.88
2023-04-21T17:17:15.283Z,98640.78
2023-04-21T17:19:41.816Z,98643.09
2023-04-21T17:22:08.356Z,98646.78
2023-04-21T17:24:45.360Z,98652.69
2023-04-21T17:27:19.307Z,98662.06
2023-04-21T17:29:46.830Z,98657.41
2023-04-21T17:32:13.460Z,98647.09
2023-04-21T17:34:40.230Z,98651.47
2023-04-21T17:37:07.019Z,98658.88
2023-04-21T17:39:34.061Z,98657.28
2023-04-21T17:42:03.068Z,98661.50
2023-04-21T17:44:31.100Z,98661.84
2023-04-21T17:47:00.655Z,98656.16
2023-04-21T17:49:27.302Z,98665.03
2023-04-21T17:51:53.772Z,98653.66
2023-04-21T17:54:20.352Z,98667.72
2023-04-21T17:56:47.002Z,98677.84
2023-04-21T17:59:13.857Z,98662.66
2023-04-21T18:01:40.828Z,98652.31
2023-04-21T18:04:07.949Z,98661.34
2023-04-21T18:06:36.086Z,98669.28
2023-04-21T18:09:05.261Z,98663.50
2023-04-21T18:11:31.931Z,98665.50
2023-04-21T18:13:58.770Z,98666.63
2023-04-21T18:16:25.702Z,98662.50
2023-04-21T18:18:52.398Z,98656.72
2023-04-21T18:21:18.999Z,98655.09
2023-04-21T18:23:45.505Z,98652.63
2023-04-21T18:26:12.058Z,98656.56
2023-04-21T18:28:38.604Z,98659.13
2023-04-21T18:31:05.348Z,98660.09
2023-04-21T18:33:31.935Z,98657.59
2023-04-21T18:35:58.438Z,98658.59
2023-04-21T18:38:25.105Z,98654.28
2023-04-21T18:40:51.635Z,98651.00
2023-04-21T18:43:18.192Z,98666.63
2023-04-21T18:45:44.727Z,98650.50
2023-04-21T18:48:11.372Z,98640.19
2023-04-21T18:50:40.854Z,98644.63
2023-04-21T18:53:08.817Z,98655.84
2023-04-21T18:55:36.294Z,98669.72
2023-04-21T18:58:03.498Z,98665.47
2023-04-21T19:00:31.860Z,98661.28
2023-04-21T19:03:01.897Z,98669.00
2023-04-21T19:05:31.061Z,98664.78
2023-04-21T19:07:58.383Z,98652.78
2023-04-21T19:10:24.910Z,98644.19
2023-04-21T19:12:51.626Z,98637.41
2023-04-21T19:15:18.321Z,98649.53
2023-04-21T19:17:45.181Z,98646.97
2023-04-21T19:20:12.251Z,98658.25
2023-04-21T19:22:39.223Z,98646.28
2023-04-21T19:25:07.090Z,98650.53
2023-04-21T19:27:33.973Z,98662.66
2023-04-21T19:30:00.987Z,98659.25
2023-04-21T19:32:27.730Z,98661.88
2023-04-21T19:34:54.395Z,98666.22
2023-04-21T19:37:21.296Z,98660.19
2023-04-21T19:39:47.980Z,98651.66
2023-04-21T19:42:14.643Z,98659.41
2023-04-21T19:44:41.795Z,98656.81
2023-04-21T19:47:08.364Z,98653.47
2023-04-21T19:49:35.541Z,98648.25
2023-04-21T19:52:02.088Z,98657.72
2023-04-21T19:54:28.652Z,98662.94
2023-04-21T19:56:55.549Z,98654.41
2023-04-21T19:59:22.113Z,98638.06
2023-04-21T20:01:48.660Z,98642.34
2023-04-21T20:04:16.434Z,98635.44
2023-04-21T20:06:43.641Z,98625.19
2023-04-21T20:09:10.500Z,98616.53
2023-04-21T20:11:37.256Z,98621.69
2023-04-21T20:14:03.868Z,98601.94
2023-04-21T20:16:31.901Z,98589.09
2023-04-21T20:18:58.978Z,98606.31
2023-04-21T20:21:25.906Z,98594.25
2023-04-21T20:23:52.714Z,98600.28
2023-04-21T20:26:19.298Z,98608.94
2023-04-21T20:28:45.832Z,98596.06
2023-04-21T20:31:12.625Z,98590.88
2023-04-21T20:33:39.491Z,98596.06
2023-04-21T20:36:08.775Z,98595.19
2023-04-21T20:38:35.544Z,98589.09
2023-04-21T20:41:03.311Z,98584.91
2023-04-21T20:43:33.100Z,98592.66
2023-04-21T20:46:01.293Z,98589.16
2023-04-21T20:48:28.002Z,98601.31
2023-04-21T20:50:55.723Z,98590.09
2023-04-21T20:53:22.783Z,98602.13
2023-04-21T20:55:49.578Z,98588.34
2023-04-21T20:58:16.163Z,98591.78
2023-04-21T21:00:42.751Z,98588.41
2023-04-21T21:03:11.524Z,98582.38
2023-04-21T21:05:38.726Z,98568.66
2023-04-21T21:08:05.697Z,98567.78
2023-04-21T21:10:32.286Z,98549.75
2023-04-21T21:12:59.614Z,98547.16
2023-04-21T21:15:27.654Z,98554.13
2023-04-21T21:17:54.351Z,98535.22
2023-04-21T21:20:21.084Z,98544.66
2023-04-21T21:22:47.633Z,98542.13
2023-04-21T21:25:14.202Z,98542.03
2023-04-21T21:27:40.753Z,98546.31
2023-04-21T21:30:07.986Z,98542.00
2023-04-21T21:32:34.638Z,98533.41
2023-04-21T21:35:01.177Z,98537.75
2023-04-21T21:37:27.931Z,98538.59
2023-04-21T21:39:55.504Z,98529.16
2023-04-21T21:42:22.660Z,98520.59
2023-04-21T21:44:49.469Z,98518.91
2023-04-21T21:47:18.075Z,98516.34
2023-04-21T21:49:44.586Z,98516.31
2023-04-21T21:52:11.106Z,98516.31
2023-04-21T21:54:37.722Z,98512.84
2023-04-21T21:57:04.356Z,98515.47
2023-04-21T21:59:31.028Z,98511.97
2023-04-21T22:01:57.594Z,98512.88
2023-04-21T22:04:24.300Z,98505.19
2023-04-21T22:06:51.235Z,98497.44
2023-04-21T22:09:18.600Z,98506.00
2023-04-21T22:11:46.176Z,98500.00
2023-04-21T22:14:22.800Z,98500.88
2023-04-21T22:16:50.663Z,98496.53
2023-04-21T22:19:18.983Z,98486.28
2023-04-21T22:21:45.952Z,98496.59
2023-04-21T22:24:13.034Z,98474.25
2023-04-21T22:26:39.597Z,98483.72
2023-04-21T22:29:06.304Z,98462.16
2023-04-21T22:31:33.056Z,98471.63
2023-04-21T22:33:59.693Z,98467.31
2023-04-21T22:36:26.308Z,98458.75
2023-04-21T22:38:52.882Z,98451.91
2023-04-21T22:41:20.204Z,98462.22
2023-04-21T22:43:47.565Z,98458.75
2023-04-21T22:46:14.366Z,98458.75
2023-04-21T22:48:41.366Z,98454.44
2023-04-21T22:51:07.897Z,98444.97
2023-04-21T22:53:34.641Z,98439.78
2023-04-21T22:56:01.197Z,98433.78
2023-04-21T22:58:27.733Z,98436.34
2023-04-21T23:00:54.380Z,98431.22
2023-04-21T23:03:23.185Z,98440.63
2023-04-21T23:05:49.995Z,98435.50
2023-04-21T23:08:16.489Z,98432.81
2023-04-21T23:10:43.064Z,98447.44
2023-04-21T23:13:09.758Z,98456.91
2023-04-21T23:15:36.654Z,98465.50
2023-04-21T23:18:03.319Z,98472.44
2023-04-21T23:20:29.977Z,98478.44
2023-04-21T23:22:56.560Z,98487.81
2023-04-21T23:25:23.852Z,98498.94
2023-04-21T23:27:50.375Z,98516.97
2023-04-21T23:30:17.067Z,98513.53
2023-04-21T23:32:43.781Z,98517.78
2023-04-21T23:35:10.813Z,98509.19
2023-04-21T23:37:37.394Z,98509.16
2023-04-21T23:40:09.021Z,98500.50
2023-04-21T23:42:36.163Z,98497.09
2023-04-21T23:45:03.487Z,98487.66
2023-04-21T23:47:30.372Z,98491.97
2023-04-21T23:49:57.068Z,98489.41
2023-04-21T23:52:24.197Z,98480.81
2023-04-21T23:54:50.827Z,98493.72
2023-04-21T23:57:17.378Z,98482.63
2023-04-21T23:59:43.961Z,98474.88
